Weather at Subic Bay International Airport / Naval Air Station Cubi Point

Public forecast

Using degrees Celsius for public forecast. Weather courtesy of forecast.io.

Current aviation weather report (METAR) for Subic Bay International Airport / Naval Air Station Cubi Point

Retrieved 2021/05/12 05:00 UTC (52 minutes ago):

RPLB 120500Z 10010KT 060V130 9999 FEW020 36/21 Q1008 NOSIG RMK A2977

Aviation forecast (TAF) for Subic Bay International Airport / Naval Air Station Cubi Point

Retrieved 2021-05-12 00:00 UTC (6 hours ago):

TAF RPLB 112300Z 1200/1224 07008KT 9999 FEW020 TX36/1206Z TN26/1221Z TEMPO 1200/1206 06010KT TS FEW018CB FEW020 SCT300